Historique des mesures à Cassis (13260), France
Quotidien Résumé Décembre 8, 2018 Unités:  Métrique    US   Métrique/US
« Précédent (Jour)
Suivant (Jour) »
Quotidien Hebdomadaire Mensuel Annuel Période au choix
  Maximum: Minimum: Moyenne:
Température: TemperatureC °C 9.8 °C 11.4 °C
Point de rosée: DewpointC °C 1.4 °C 3.1 °C
Humidité: Humidity % 50 % 54 %
Vitesse du vent: 0 km/h 9.3 km/h 21.6 km/h
Rafales: 0 km/h - -
Vent:- - WSW
Pression: PressurehPa hPa 1014.8 hPa -
Précipitations: 0.0 mm    
Historical Graphs
 
 
Mesures pour : Décembre 8, 2018
Heure Temperature Point de rosée Pression Vent Vitesse du vent Rafales Humidité Pluie (par heure) Conditions
TemperatureC °C DewpointC °C PressurehPa hPa Calm     Humidity % HourlyPrecipMM mm SoftwareType W/m2
00:10 13.5 °C 8.1 °C 1014.8 hPa West 44.6 km/h 44.6 km/h 70 % 0.0 mm open2300-1.11 W/m2
01:10 13.1 °C 3.9 °C 1014.9 hPa NNE 22.5 km/h 37 km/h 54 % 0.0 mm open2300-1.11 W/m2
02:10 12.1 °C 3.0 °C 1014.9 hPa WNW 16.3 km/h 44.6 km/h 54 % 0.0 mm open2300-1.11 W/m2
03:10 11.5 °C 2.7 °C 1015.8 hPa NNW 13.8 km/h 20.9 km/h 55 % 0.0 mm open2300-1.11 W/m2
04:10 10.9 °C 2.4 °C 1015.8 hPa NNW 13.4 km/h 65.5 km/h 56 % 0.0 mm open2300-1.11 W/m2
05:10 10.6 °C 1.9 °C 1016.2 hPa NNW 16.3 km/h 63.1 km/h 55 % 0.0 mm open2300-1.11 W/m2
06:10 10.3 °C 1.6 °C 1016.9 hPa WNW 26.7 km/h 31.2 km/h 55 % 0.0 mm open2300-1.11 W/m2
07:10 9.9 °C 1.5 °C 1017.2 hPa WNW 33 km/h 62 km/h 56 % 0.0 mm open2300-1.11 W/m2
08:10 9.8 °C 1.4 °C 1017.8 hPa WNW 27.8 km/h 34.1 km/h 56 % 0.0 mm open2300-1.11 W/m2
09:10 10.1 °C 1.4 °C 1018.4 hPa WNW 21.4 km/h 38.8 km/h 55 % 0.0 mm open2300-1.11 W/m2
10:10 10.6 °C 1.6 °C 1018.9 hPa North 22.5 km/h 33.6 km/h 54 % 0.0 mm open2300-1.11 W/m2
11:10 11.4 °C 2.4 °C 1019.2 hPa North 11.6 km/h 34.8 km/h 54 % 0.0 mm open2300-1.11 W/m2
12:10 12.3 °C 2.7 °C 1019.0 hPa WNW 9.8 km/h 35.4 km/h 52 % 0.0 mm open2300-1.11 W/m2
13:10 12.8 °C 2.6 °C 1018.3 hPa NNE 22.5 km/h 51 km/h 50 % 0.0 mm open2300-1.11 W/m2
14:10 13.2 °C 3.0 °C 1018.3 hPa WNW 52.1 km/h 52.1 km/h 50 % 0.0 mm open2300-1.11 W/m2
15:10 13.3 °C 3.6 °C 1017.8 hPa WNW 19.2 km/h 37.7 km/h 52 % 0.0 mm open2300-1.11 W/m2
16:10 13.1 °C 3.7 °C 1017.5 hPa NNW 27.2 km/h 27.2 km/h 53 % 0.0 mm open2300-1.11 W/m2
17:10 12.8 °C 3.4 °C 1017.3 hPa WNW 34.8 km/h 34.8 km/h 53 % 0.0 mm open2300-1.11 W/m2
18:10 12.6 °C 3.7 °C 1017.6 hPa North 19.6 km/h 39.9 km/h 55 % 0.0 mm open2300-1.11 W/m2
19:10 12.5 °C 3.9 °C 1017.7 hPa NW 15.1 km/h 26.7 km/h 56 % 0.0 mm open2300-1.11 W/m2
20:10 12.3 °C 4.0 °C 1017.8 hPa NNW 9.3 km/h 17.4 km/h 57 % 0.0 mm open2300-1.11 W/m2
21:10 12.1 °C 4.3 °C 1018.3 hPa NNW 17.4 km/h 23.2 km/h 59 % 0.0 mm open2300-1.11 W/m2
22:10 12.1 °C 4.8 °C 1018.0 hPa West 11.6 km/h 11.6 km/h 61 % 0.0 mm open2300-1.11 W/m2
23:10 11.8 °C 5.4 °C 1017.6 hPa WNW 29 km/h 36.5 km/h 65 % 0.0 mm open2300-1.11 W/m2
Observations météo à CASSIS
WU-History script by Weather Underground - 1 mb